Latest Weather Observations for Clare

IDS60801

Issued at 11:31 am CDT Thursday 2 April 2015 (issued every 30 minutes, with the page automatically refreshed every 10 minutes)

About weather observations | Map of weather stations | Latest weather observations for SA | Other Formats
Station Details ID: 021131 Name: CLARE HIGH SCHOOL Lat: -33.82 Lon: 138.59 Height: 395.0 m
Data from the previous 72 hours. | See also: Recent months at Clare
Date/Time
CDT
Temp
°C
App
Temp
°C
Dew
Point
Rel
Hum
%
Delta-T
°C
Wind Press
QNH
hPa
Press
MSL
hPa
Rain
since 9 am
mm
Dir
 
Spd
km/h
Gust
km/h
Spd
kts
Gust
kts
02/11:30am 14.7 9.5 3.5 47 5.2 E 20 43 11 23 1024.3 - 0.0
02/11:00am 13.7 8.3 4.6 54 4.3 E 22 41 12 22 1024.3 - 0.0
02/10:30am 13.8 8.8 4.4 53 4.4 E 20 35 11 19 1024.4 - 0.0
02/10:00am 12.7 8.2 4.2 56 3.9 ESE 17 33 9 18 1024.6 - 0.0
02/09:30am 12.2 7.5 3.2 54 4.1 E 17 30 9 16 1024.3 - 0.0
02/09:00am 11.6 7.2 5.0 64 3.1 ESE 17 33 9 18 1024.0 1023.4 0.0
02/08:30am 11.8 7.9 6.9 72 2.4 ESE 17 33 9 18 1023.6 - 0.0
02/08:00am 12.0 7.8 7.3 73 2.3 ESE 19 32 10 17 1022.9 - 0.0
02/07:30am 12.5 9.7 8.4 76 2.1 ESE 13 24 7 13 1022.1 - 0.0
02/07:00am 12.6 9.1 8.7 77 2.0 ESE 17 32 9 17 1021.9 - 0.0
02/06:30am 13.0 10.2 10.0 82 1.6 ESE 15 28 8 15 1021.6 - 0.0
02/06:00am 13.4 11.1 10.4 82 1.6 ESE 13 28 7 15 1021.0 1020.4 0.0
02/05:30am 13.5 10.7 9.9 79 1.9 ESE 15 26 8 14 1020.6 - 0.0
02/05:00am 13.7 11.6 11.0 84 1.5 ESE 13 26 7 14 1020.2 - 0.0
02/04:30am 13.8 11.8 11.5 86 1.3 ESE 13 26 7 14 1020.2 - 0.0
02/04:00am 14.6 12.9 12.6 88 1.1 ESE 13 20 7 11 1020.0 - 0.0
02/03:30am 15.1 13.6 13.1 88 1.1 ESE 13 22 7 12 1019.9 - 0.0
02/03:00am 15.4 14.8 14.6 95 0.5 SSE 11 17 6 9 1020.0 1019.4 0.0
02/02:30am 16.0 16.5 15.5 97 0.3 SSE 7 13 4 7 1020.1 - 0.0
02/02:00am 16.0 16.1 15.4 96 0.4 SSE 9 15 5 8 1020.0 - 0.0
02/01:30am 15.9 16.0 15.6 98 0.2 SSE 9 19 5 10 1020.1 - 0.0
02/01:00am 16.1 16.2 15.5 96 0.4 S 9 15 5 8 1020.0 - 0.0
02/12:30am 16.1 15.5 15.6 97 0.3 S 13 24 7 13 1019.8 - 0.0
02/12:00am 16.5 15.4 15.2 92 0.8 S 15 24 8 13 1019.9 1019.3 0.0
 
Date/Time
CDT
Temp
°C
App
Temp
°C
Dew
Point
Rel
Hum
%
Delta-T
°C
Wind Press
QNH
hPa
Press
MSL
hPa
Rain
since 9 am
mm
Dir
 
Spd
km/h
Gust
km/h
Spd
kts
Gust
kts
01/11:30pm 16.7 15.5 15.1 90 0.9 S 15 28 8 15 1019.8 - 0.0
01/11:00pm 16.6 15.1 15.3 92 0.8 S 17 30 9 16 1019.5 - 0.0
01/10:30pm 17.1 16.3 15.1 88 1.2 S 13 22 7 12 1019.3 - 0.0
01/10:00pm 17.6 16.6 14.5 82 1.8 S 13 20 7 11 1019.4 - 0.0
01/09:30pm 18.3 17.9 14.0 76 2.5 S 9 15 5 8 1019.0 - 0.0
01/09:00pm 18.4 17.1 13.7 74 2.7 S 13 20 7 11 1018.7 1018.0 0.0
01/08:30pm 19.4 18.7 13.3 68 3.5 S 9 17 5 9 1018.3 - 0.0
01/08:00pm 20.0 18.5 13.0 64 4.0 S 13 19 7 10 1017.7 - 0.0
01/07:30pm 20.4 18.5 12.9 62 4.3 S 15 24 8 13 1017.2 - 0.0
01/07:00pm 20.9 18.4 13.4 62 4.4 S 19 30 10 16 1017.0 - 0.0
01/06:30pm 21.9 19.4 12.2 54 5.6 S 17 28 9 15 1016.7 - 0.0
01/06:00pm 23.3 20.1 11.4 47 6.8 SSW 19 32 10 17 1016.4 1015.7 0.0
01/05:30pm 25.9 22.8 8.8 34 9.4 SW 15 28 8 15 1015.9 - 0.0
01/05:00pm 26.6 22.8 7.6 30 10.3 W 17 28 9 15 1015.8 - 0.0
01/04:30pm 27.8 23.2 5.4 24 11.8 W 19 32 10 17 1015.8 - 0.0
01/04:00pm 28.5 23.0 4.1 21 12.6 W 22 39 12 21 1015.7 - 0.0
01/03:30pm 28.0 21.0 2.2 19 12.9 WNW 28 44 15 24 1015.7 - 0.0
01/03:00pm 28.7 22.5 2.1 18 13.3 W 24 35 13 19 1016.0 1015.3 0.0
01/02:30pm 28.6 22.9 2.7 19 13.1 WNW 22 39 12 21 1016.3 - 0.0
01/02:00pm 27.3 21.1 2.4 20 12.4 WNW 24 33 13 18 1016.5 - 0.0
01/01:30pm 27.5 21.8 2.6 20 12.5 WNW 22 43 12 23 1017.0 - 0.0
01/01:00pm 28.6 23.1 2.0 18 13.3 WNW 20 35 11 19 1017.3 - 0.0
01/12:30pm 27.3 21.0 1.7 19 12.6 NW 24 39 13 21 1017.7 - 0.0
01/12:00pm 27.2 21.9 1.6 19 12.5 NNW 19 28 10 15 1017.7 1017.1 0.0
01/11:30am 26.4 20.1 1.7 20 12.1 NNW 24 33 13 18 1018.0 - 0.0
01/11:00am 25.8 21.1 1.2 20 11.9 N 15 24 8 13 1018.3 - 0.0
01/10:30am 24.1 19.3 0.4 21 11.1 N 15 24 8 13 1018.5 - 0.0
01/10:00am 22.7 19.1 0.5 23 10.3 N 9 15 5 8 1018.4 - 0.0
01/09:30am 21.2 17.3 1.0 26 9.4 N 11 20 6 11 1018.7 - 0.0
01/09:00am 20.3 17.2 1.2 28 8.8 N 7 13 4 7 1018.6 1017.9 0.0
01/08:30am 19.4 15.8 0.9 29 8.5 NE 9 15 5 8 1018.4 - 0.0
01/08:00am 18.5 15.3 0.6 30 8.1 NE 7 11 4 6 1018.5 - 0.0
01/07:30am 17.7 14.5 0.8 32 7.6 ENE 7 11 4 6 1018.6 - 0.0
01/07:00am 16.2 14.4 1.1 36 6.7 CALM 0 6 0 3 1018.5 - 0.0
01/06:30am 16.3 13.4 1.2 36 6.8 NE 6 7 3 4 1018.3 - 0.0
01/06:00am 17.3 14.4 1.3 34 7.2 NE 6 9 3 5 1018.3 1017.6 0.0
01/05:30am 16.9 13.9 1.8 36 6.9 ENE 7 11 4 6 1018.2 - 0.0
01/05:00am 16.9 13.6 2.5 38 6.7 ENE 9 11 5 6 1018.5 - 0.0
01/04:30am 13.7 10.9 3.2 49 4.8 E 7 9 4 5 1018.7 - 0.0
01/04:00am 16.9 14.0 2.5 38 6.7 ENE 7 11 4 6 1018.8 - 0.0
01/03:30am 15.4 13.1 2.9 43 5.8 NE 4 7 2 4 1019.0 - 0.0
01/03:00am 15.9 13.6 3.0 42 6.0 NE 4 11 2 6 1019.5 1018.9 0.0
01/02:30am 15.3 12.6 3.5 45 5.5 E 7 9 4 5 1019.8 - 0.0
01/02:00am 17.6 14.5 3.5 39 6.7 E 9 13 5 7 1020.3 - 0.0
01/01:30am 16.8 13.7 3.8 42 6.2 E 9 11 5 6 1020.6 - 0.0
01/01:00am 15.6 13.6 4.3 47 5.4 ENE 4 9 2 5 1021.0 - 0.0
01/12:30am 14.2 12.9 4.2 51 4.7 CALM 0 0 0 0 1021.1 - 0.0
01/12:00am 14.9 12.8 4.0 48 5.1 E 4 6 2 3 1021.3 1020.7 0.0
 
Date/Time
CDT
Temp
°C
App
Temp
°C
Dew
Point
Rel
Hum
%
Delta-T
°C
Wind Press
QNH
hPa
Press
MSL
hPa
Rain
since 9 am
mm
Dir
 
Spd
km/h
Gust
km/h
Spd
kts
Gust
kts
31/11:30pm 15.6 14.4 4.6 48 5.3 CALM 0 0 0 0 1021.3 - 0.0
31/11:00pm 15.6 14.3 4.3 47 5.4 CALM 0 0 0 0 1021.3 - 0.0
31/10:30pm 16.4 15.2 4.4 45 5.8 CALM 0 0 0 0 1021.4 - 0.0
31/10:00pm 17.3 16.0 3.9 41 6.4 CALM 0 0 0 0 1021.2 - 0.0
31/09:30pm 18.5 15.8 3.6 37 7.1 ENE 7 9 4 5 1021.0 - 0.0
31/09:00pm 19.9 18.4 3.2 33 8.0 CALM 0 0 0 0 1021.2 1019.9 0.0
31/08:30pm 21.7 19.0 2.4 28 9.2 NE 6 11 3 6 1020.9 - 0.0
31/08:00pm 22.1 20.0 1.7 26 9.7 NNW 2 9 1 5 1020.8 - 0.0
31/07:30pm 24.5 21.4 1.4 22 11.1 E 7 11 4 6 1020.7 - 0.0
31/07:00pm 26.0 23.0 0.6 19 12.1 E 6 11 3 6 1020.8 - 0.0
31/06:30pm 27.1 24.4 0.0 17 12.9 ENE 4 11 2 6 1020.7 - 0.0
31/06:00pm 28.1 24.7 -0.9 15 13.7 NNE 7 17 4 9 1020.7 1019.4 0.0
31/05:30pm 28.3 25.6 0.1 16 13.6 E 4 11 2 6 1020.3 - 0.0
31/05:00pm 28.8 24.8 0.5 16 13.8 NE 11 19 6 10 1020.3 - 0.0
31/04:30pm 29.4 26.4 1.0 16 14.0 NE 6 13 3 7 1020.2 - 0.0
31/04:00pm 29.8 26.7 1.3 16 14.2 NNE 7 15 4 8 1020.7 - 0.0
31/03:30pm 29.1 26.0 1.6 17 13.7 NE 7 17 4 9 1021.0 - 0.0
31/03:00pm 28.8 25.4 -0.4 15 13.9 ENE 7 15 4 8 1021.3 1020.1 0.0
31/02:30pm 28.8 24.5 1.3 17 13.6 NNW 13 20 7 11 1021.8 - 0.0
31/02:00pm 28.5 25.4 1.1 17 13.4 NW 7 19 4 10 1022.3 - 0.0
31/01:30pm 28.2 25.0 3.1 20 12.7 N 9 19 5 10 1022.9 - 0.0
31/01:00pm 27.4 23.6 3.8 22 12.1 N 13 20 7 11 1023.4 - 0.0
31/12:30pm 27.1 24.1 4.2 23 11.8 NNE 9 20 5 11 1024.0 - 0.0
31/12:00pm 25.8 22.3 3.7 24 11.1 NE 11 20 6 11 1024.3 1023.1 0.0
31/11:30am 25.2 22.0 4.9 27 10.4 NNE 11 19 6 10 1024.5 - 0.0
31/11:00am 24.2 20.4 6.0 31 9.5 ENE 15 20 8 11 1024.8 - 0.0
31/10:30am 22.8 19.8 6.1 34 8.6 NE 11 20 6 11 1025.1 - 0.0
31/10:00am 21.4 18.5 6.5 38 7.7 ENE 11 19 6 10 1025.2 - 0.0
31/09:30am 19.8 17.1 7.2 44 6.5 ENE 11 17 6 9 1025.4 - 0.0
31/09:00am 18.4 16.8 8.7 53 5.1 ENE 7 13 4 7 1025.5 1024.3 0.0
31/08:30am 16.5 14.9 8.7 60 4.1 E 7 11 4 6 1025.3 - 0.0
31/08:00am 11.9 11.5 8.4 79 1.8 CALM 0 0 0 0 1025.3 - 0.0
31/07:30am 11.9 11.5 8.2 78 1.9 CALM 0 0 0 0 1025.2 - 0.0
31/07:00am 13.5 11.7 8.1 70 2.7 E 7 11 4 6 1025.0 - 0.0
31/06:30am 14.7 13.1 8.6 67 3.1 E 7 9 4 5 1024.9 - 0.0
31/06:00am 14.7 13.2 9.1 69 2.9 E 7 11 4 6 1024.6 1023.4 0.0
31/05:30am 14.5 13.1 8.9 69 2.9 E 6 9 3 5 1024.5 - 0.0
31/05:00am 15.0 13.7 9.1 68 3.1 E 6 11 3 6 1024.3 - 0.0
31/04:30am 15.3 13.8 9.2 67 3.2 ESE 7 11 4 6 1024.5 - 0.0
31/04:00am 15.4 13.9 9.3 67 3.2 E 7 17 4 9 1024.4 - 0.0
31/03:30am 15.1 13.7 8.8 66 3.3 E 6 11 3 6 1024.5 - 0.0
31/03:00am 15.3 13.9 9.0 66 3.3 ESE 6 11 3 6 1024.7 1023.5 0.0
31/02:30am 16.0 14.1 9.2 64 3.6 E 9 17 5 9 1024.7 - 0.0
31/02:00am 16.0 14.0 8.7 62 3.8 ESE 9 15 5 8 1025.0 - 0.0
31/01:30am 16.4 14.5 8.9 61 3.9 E 9 17 5 9 1025.0 - 0.0
31/01:00am 16.3 14.6 8.5 60 4.1 ESE 7 13 4 7 1025.0 - 0.0
31/12:30am 16.5 15.0 8.5 59 4.2 ESE 6 9 3 5 1025.1 - 0.0
31/12:00am 17.0 15.2 7.9 55 4.7 ESE 7 11 4 6 1025.2 1024.0 0.0
 
Date/Time
CDT
Temp
°C
App
Temp
°C
Dew
Point
Rel
Hum
%
Delta-T
°C
Wind Press
QNH
hPa
Press
MSL
hPa
Rain
since 9 am
mm
Dir
 
Spd
km/h
Gust
km/h
Spd
kts
Gust
kts
30/11:30pm 16.1 14.5 7.8 58 4.3 ESE 6 9 3 5 1025.6 - 0.0
30/11:00pm 16.3 15.1 8.0 58 4.3 ESE 4 9 2 5 1025.6 - 0.0
30/10:30pm 16.0 15.1 7.7 58 4.2 E 2 6 1 3 1025.7 - 0.0
30/10:00pm 17.1 16.1 7.2 52 5.0 SE 2 6 1 3 1025.6 - 0.0
30/09:30pm 18.6 16.6 7.1 47 5.9 ESE 7 9 4 5 1025.5 - 0.0
30/09:00pm 19.2 16.9 7.3 46 6.1 SE 9 15 5 8 1025.3 1024.1 0.0
30/08:30pm 19.8 17.7 8.2 47 6.1 SE 9 15 5 8 1025.0 - 0.0
30/08:00pm 20.6 18.6 8.6 46 6.4 SSE 9 13 5 7 1024.7 - 0.0
30/07:30pm 21.2 19.1 8.1 43 7.0 S 9 15 5 8 1024.4 - 0.0
30/07:00pm 22.4 19.6 8.5 41 7.5 S 13 20 7 11 1024.2 - 0.0
30/06:30pm 23.7 20.7 7.8 36 8.5 S 13 20 7 11 1024.0 - 0.0
30/06:00pm 25.1 21.2 5.3 28 10.2 SSW 15 26 8 14 1023.8 1022.6 0.0
30/05:30pm 25.5 21.5 5.1 27 10.5 S 15 20 8 11 1023.7 - 0.0
30/05:00pm 25.7 23.2 4.8 26 10.8 SW 7 17 4 9 1023.6 - 0.0
30/04:30pm 25.6 23.9 5.8 28 10.4 SSE 4 17 2 9 1023.5 - 0.0
30/04:00pm 25.7 22.7 5.8 28 10.4 S 11 19 6 10 1023.6 - 0.0
30/03:30pm 25.2 22.5 5.4 28 10.3 W 9 19 5 10 1023.7 - 0.0
30/03:00pm 25.0 21.3 6.2 30 9.8 S 15 24 8 13 1023.9 1022.7 0.0
30/02:30pm 25.1 22.5 6.3 30 9.9 N 9 22 5 12 1024.0 - 0.0
30/02:00pm 25.4 23.1 7.5 32 9.6 W 9 17 5 9 1024.4 - 0.0
30/01:30pm 24.5 21.9 7.6 34 9.1 SSE 11 17 6 9 1024.7 - 0.0
30/01:00pm 23.7 21.4 7.3 35 8.7 W 9 20 5 11 1025.1 - 0.0
30/12:30pm 23.5 21.0 8.0 37 8.3 W 11 17 6 9 1025.3 - 0.0
30/12:00pm 22.7 20.5 8.0 39 7.8 WSW 9 15 5 8 1025.6 1024.5 0.0

Other Formats:

Comma delimited format used in spreadsheet applications
http://www.bom.gov.au/fwo/IDS60801/IDS60801.95667.axf

JavaScript Object Notation format (JSON) in row-major order
http://www.bom.gov.au/fwo/IDS60801/IDS60801.95667.json